createdAt,value
2023-07-28T00:02:12.340Z,99598.09
2023-07-28T00:05:15.189Z,99595.34
2023-07-28T00:08:17.663Z,99590.28
2023-07-28T00:11:20.318Z,99590.50
2023-07-28T00:14:22.703Z,99592.72
2023-07-28T00:17:25.523Z,99584.53
2023-07-28T00:20:27.941Z,99588.31
2023-07-28T00:23:30.651Z,99589.16
2023-07-28T00:26:33.254Z,99578.50
2023-07-28T00:29:36.136Z,99587.94
2023-07-28T00:32:38.613Z,99579.22
2023-07-28T00:35:41.347Z,99589.53
2023-07-28T00:38:43.690Z,99590.25
2023-07-28T00:41:46.644Z,99593.56
2023-07-28T00:44:49.000Z,99591.22
2023-07-28T00:47:52.203Z,99592.78
2023-07-28T00:50:55.490Z,99591.91
2023-07-28T00:54:00.409Z,99587.00
2023-07-28T00:57:03.268Z,99592.97
2023-07-28T01:00:06.875Z,99585.34
2023-07-28T01:03:09.319Z,99577.94
2023-07-28T01:06:29.016Z,99576.53
2023-07-28T01:09:41.231Z,99570.66
2023-07-28T01:12:45.839Z,99574.16
2023-07-28T01:15:48.453Z,99573.09
2023-07-28T01:18:51.257Z,99566.59
2023-07-28T01:21:58.488Z,99568.44
2023-07-28T01:25:31.097Z,99574.69
2023-07-28T01:28:35.347Z,99568.97
2023-07-28T01:31:38.105Z,99560.00
2023-07-28T01:34:40.534Z,99565.03
2023-07-28T01:37:43.213Z,99557.97
2023-07-28T01:40:45.642Z,99551.31
2023-07-28T01:43:48.362Z,99543.13
2023-07-28T01:46:50.692Z,99541.72
2023-07-28T01:49:54.951Z,99545.06
2023-07-28T01:52:57.643Z,99543.72
2023-07-28T01:56:01.856Z,99535.56
2023-07-28T01:59:06.340Z,99546.38
2023-07-28T02:02:10.598Z,99549.09
2023-07-28T02:05:13.253Z,99546.47
2023-07-28T02:08:15.688Z,99536.34
2023-07-28T02:11:18.326Z,99544.81
2023-07-28T02:14:20.767Z,99545.50
2023-07-28T02:17:23.482Z,99558.25
2023-07-28T02:20:25.923Z,99563.91
2023-07-28T02:23:28.625Z,99551.16
2023-07-28T02:26:31.094Z,99562.22
2023-07-28T02:29:33.734Z,99565.03
2023-07-28T02:32:37.853Z,99560.72
2023-07-28T02:35:40.570Z,99562.41
2023-07-28T02:38:42.964Z,99564.59
2023-07-28T02:41:45.591Z,99563.53
2023-07-28T02:44:47.998Z,99556.38
2023-07-28T02:47:50.639Z,99555.31
2023-07-28T02:50:53.525Z,99556.38
2023-07-28T02:53:56.201Z,99545.06
2023-07-28T02:57:00.418Z,99548.75
2023-07-28T03:00:04.121Z,99558.19
2023-07-28T03:03:08.683Z,99555.31
2023-07-28T03:06:12.188Z,99552.81
2023-07-28T03:09:17.340Z,99548.72
2023-07-28T03:12:20.775Z,99555.53
2023-07-28T03:15:23.683Z,99550.19
2023-07-28T03:18:26.353Z,99552.25
2023-07-28T03:21:31.398Z,99551.13
2023-07-28T03:24:34.094Z,99555.22
2023-07-28T03:30:40.002Z,99552.88
2023-07-28T03:33:43.856Z,99551.75
2023-07-28T03:36:47.101Z,99548.16
2023-07-28T03:39:51.999Z,99549.19
2023-07-28T03:42:55.822Z,99555.84
2023-07-28T03:45:58.197Z,99562.81
2023-07-28T03:49:01.266Z,99554.00
2023-07-28T03:52:04.786Z,99548.47
2023-07-28T03:55:08.389Z,99552.69
2023-07-28T03:58:10.834Z,99544.37
2023-07-28T04:01:13.590Z,99544.00
2023-07-28T04:04:16.445Z,99538.78
2023-07-28T04:07:18.803Z,99539.53
2023-07-28T04:10:22.348Z,99540.25
2023-07-28T04:13:24.708Z,99545.53
2023-07-28T04:16:27.425Z,99544.25
2023-07-28T04:19:30.877Z,99544.25
2023-07-28T04:22:33.585Z,99540.41
2023-07-28T04:25:36.161Z,99541.94
2023-07-28T04:28:38.915Z,99543.63
2023-07-28T04:31:41.830Z,99544.03
2023-07-28T04:34:45.035Z,99545.47
2023-07-28T04:37:47.820Z,99540.66
2023-07-28T04:40:51.095Z,99532.50
2023-07-28T04:43:54.020Z,99538.81
2023-07-28T04:46:56.782Z,99543.97
2023-07-28T04:49:59.514Z,99544.25
2023-07-28T04:53:04.530Z,99532.22
2023-07-28T04:56:09.229Z,99530.56
2023-07-28T04:59:11.882Z,99527.13
2023-07-28T05:02:14.275Z,99534.94
2023-07-28T05:05:17.860Z,99539.88
2023-07-28T05:08:20.484Z,99543.56
2023-07-28T05:11:23.200Z,99546.47
2023-07-28T05:14:25.687Z,99541.88
2023-07-28T05:17:28.449Z,99540.75
2023-07-28T05:20:31.824Z,99539.91
2023-07-28T05:23:34.468Z,99556.75
2023-07-28T05:26:36.932Z,99561.44
2023-07-28T05:29:39.819Z,99548.66
2023-07-28T05:32:42.346Z,99546.56
2023-07-28T05:35:45.350Z,99550.97
2023-07-28T05:38:47.732Z,99555.44
2023-07-28T05:41:50.371Z,99565.03
2023-07-28T05:44:54.116Z,99560.72
2023-07-28T05:47:56.979Z,99566.28
2023-07-28T05:50:59.362Z,99574.09
2023-07-28T05:54:02.728Z,99580.19
2023-07-28T05:57:07.380Z,99581.81
2023-07-28T06:00:11.173Z,99594.06
2023-07-28T06:03:17.362Z,99592.72
2023-07-28T06:06:23.234Z,99579.91
2023-07-28T06:09:25.600Z,99591.84
2023-07-28T06:12:28.439Z,99591.59
2023-07-28T06:15:30.928Z,99582.69
2023-07-28T06:18:33.700Z,99590.97
2023-07-28T06:21:36.986Z,99575.66
2023-07-28T06:24:39.897Z,99573.06
2023-07-28T06:27:43.889Z,99580.84
2023-07-28T06:30:46.886Z,99579.06
2023-07-28T06:33:49.372Z,99557.63
2023-07-28T06:36:53.030Z,99556.03
2023-07-28T06:39:56.927Z,99558.19
2023-07-28T06:42:59.675Z,99553.75
2023-07-28T06:46:02.201Z,99555.78
2023-07-28T06:49:05.061Z,99551.69
2023-07-28T06:52:07.818Z,99565.31
2023-07-28T06:55:10.892Z,99569.16
2023-07-28T06:58:13.652Z,99569.28
2023-07-28T07:01:16.616Z,99561.88
2023-07-28T07:04:20.212Z,99551.78
2023-07-28T07:07:22.880Z,99553.19
2023-07-28T07:10:26.209Z,99553.22
2023-07-28T07:13:28.841Z,99552.66
2023-07-28T07:16:32.241Z,99553.94
2023-07-28T07:19:34.957Z,99550.44
2023-07-28T07:22:37.934Z,99562.22
2023-07-28T07:25:40.921Z,99556.84
2023-07-28T07:28:44.574Z,99555.25
2023-07-28T07:31:47.334Z,99552.88
2023-07-28T07:34:49.705Z,99544.63
2023-07-28T07:37:52.418Z,99532.84
2023-07-28T07:40:54.776Z,99530.13
2023-07-28T07:43:57.973Z,99542.06
2023-07-28T07:47:02.275Z,99538.50
2023-07-28T07:50:06.508Z,99548.88
2023-07-28T07:53:08.957Z,99552.91
2023-07-28T07:56:11.649Z,99542.69
2023-07-28T07:59:14.833Z,99549.09
2023-07-28T08:02:17.517Z,99529.25
2023-07-28T08:05:20.146Z,99540.44
2023-07-28T08:08:22.639Z,99520.75
2023-07-28T08:11:25.255Z,99519.25
2023-07-28T08:14:27.662Z,99521.78
2023-07-28T08:17:30.328Z,99518.53
2023-07-28T08:20:32.764Z,99518.09
2023-07-28T08:23:35.370Z,99510.34
2023-07-28T08:26:37.796Z,99522.00
2023-07-28T08:29:40.467Z,99508.03
2023-07-28T08:32:43.971Z,99513.97
2023-07-28T08:35:46.722Z,99512.94
2023-07-28T08:38:50.013Z,99515.38
2023-07-28T08:42:02.312Z,99516.28
2023-07-28T08:45:09.455Z,99526.59
2023-07-28T08:48:12.427Z,99515.69
2023-07-28T08:51:15.069Z,99512.41
2023-07-28T08:54:18.056Z,99513.53
2023-07-28T08:57:20.557Z,99506.94
2023-07-28T09:00:26.037Z,99510.78
2023-07-28T09:03:29.042Z,99515.41
2023-07-28T09:06:34.664Z,99515.19
2023-07-28T09:09:38.118Z,99503.34
2023-07-28T09:12:49.919Z,99516.34
2023-07-28T09:15:52.688Z,99509.09
2023-07-28T09:19:08.526Z,99509.78
2023-07-28T09:22:14.654Z,99501.31
2023-07-28T09:25:18.293Z,99496.69
2023-07-28T09:28:20.910Z,99486.16
2023-07-28T09:31:31.750Z,99483.00
2023-07-28T09:34:34.228Z,99483.75
2023-07-28T09:37:40.337Z,99484.41
2023-07-28T09:40:43.043Z,99488.13
2023-07-28T09:43:45.973Z,99483.59
2023-07-28T09:46:53.347Z,99480.16
2023-07-28T09:49:56.541Z,99476.22
2023-07-28T09:53:03.095Z,99479.19
2023-07-28T09:56:05.997Z,99468.34
2023-07-28T09:59:13.095Z,99470.00
2023-07-28T10:02:16.086Z,99462.06
2023-07-28T10:05:18.826Z,99468.97
2023-07-28T10:08:22.277Z,99471.50
2023-07-28T10:11:27.688Z,99475.53
2023-07-28T10:14:39.286Z,99466.44
2023-07-28T10:17:48.999Z,99475.53
2023-07-28T10:20:52.422Z,99463.09
2023-07-28T10:23:59.186Z,99466.75
2023-07-28T10:27:01.906Z,99470.53
2023-07-28T10:30:06.915Z,99470.75
2023-07-28T10:33:27.566Z,99469.28
2023-07-28T10:36:30.992Z,99465.66
2023-07-28T10:39:37.185Z,99470.31
2023-07-28T10:42:41.823Z,99476.91
2023-07-28T10:45:45.872Z,99462.78
2023-07-28T10:48:50.923Z,99470.13
2023-07-28T10:51:53.385Z,99472.12
2023-07-28T10:54:56.980Z,99452.22
2023-07-28T10:57:59.636Z,99447.28
2023-07-28T11:01:03.142Z,99441.50
2023-07-28T11:04:20.009Z,99437.09
2023-07-28T11:07:22.721Z,99449.41
2023-07-28T11:10:25.905Z,99448.91
2023-07-28T11:13:40.566Z,99451.72
2023-07-28T11:16:43.911Z,99444.03
2023-07-28T11:19:46.831Z,99446.09
2023-07-28T11:22:58.245Z,99448.50
2023-07-28T11:26:01.036Z,99456.41
2023-07-28T11:29:04.567Z,99441.03
2023-07-28T11:32:07.772Z,99444.00
2023-07-28T11:35:16.331Z,99445.63
2023-07-28T11:38:19.928Z,99443.88
2023-07-28T11:41:22.601Z,99436.56
2023-07-28T11:44:25.607Z,99435.13
2023-07-28T11:47:28.080Z,99444.66
2023-07-28T11:50:35.394Z,99432.84
2023-07-28T11:53:38.531Z,99427.16
2023-07-28T11:56:44.981Z,99433.84
2023-07-28T11:59:47.394Z,99429.28
2023-07-28T12:02:50.229Z,99434.47
2023-07-28T12:09:14.444Z,99436.16
2023-07-28T12:21:38.709Z,99428.66
2023-07-28T12:24:41.421Z,99429.22
2023-07-28T12:27:45.048Z,99421.91
2023-07-28T12:30:50.742Z,99418.47
2023-07-28T12:34:02.890Z,99419.50
2023-07-28T12:37:11.514Z,99420.69
2023-07-28T12:46:25.691Z,99414.06
2023-07-28T12:49:30.166Z,99410.25
2023-07-28T12:53:08.090Z,99413.31
2023-07-28T13:02:07.206Z,99397.56
2023-07-28T13:05:11.525Z,99405.94
2023-07-28T13:08:14.215Z,99394.13
2023-07-28T13:11:18.246Z,99394.13
2023-07-28T13:14:21.130Z,99393.09
2023-07-28T13:17:23.548Z,99399.16
2023-07-28T13:20:27.188Z,99386.88
2023-07-28T13:23:29.626Z,99391.69
2023-07-28T13:26:32.253Z,99399.22
2023-07-28T13:29:34.663Z,99390.00
2023-07-28T13:32:37.357Z,99395.22
2023-07-28T13:35:39.765Z,99394.19
2023-07-28T13:38:42.503Z,99390.34
2023-07-28T13:41:44.952Z,99382.34
2023-07-28T13:44:57.935Z,99390.16
2023-07-28T13:48:01.460Z,99387.38
2023-07-28T13:51:04.215Z,99403.41
2023-07-28T13:57:12.335Z,99413.25
2023-07-28T14:00:14.910Z,99422.69
2023-07-28T14:03:17.745Z,99427.78
2023-07-28T14:06:20.598Z,99443.06
2023-07-28T14:09:23.301Z,99432.38
2023-07-28T14:12:25.718Z,99436.00
2023-07-28T14:15:28.378Z,99446.78
2023-07-28T14:18:30.689Z,99447.25
2023-07-28T14:21:33.831Z,99456.41
2023-07-28T14:24:37.075Z,99463.38
2023-07-28T14:27:39.753Z,99463.09
2023-07-28T14:30:44.774Z,99453.22
2023-07-28T14:33:47.636Z,99460.41
2023-07-28T14:36:50.159Z,99457.78
2023-07-28T14:39:52.863Z,99443.38
2023-07-28T14:42:55.340Z,99446.94
2023-07-28T14:45:58.672Z,99446.16
2023-07-28T14:49:01.273Z,99449.53
2023-07-28T14:52:04.212Z,99451.69
2023-07-28T14:55:06.829Z,99445.34
2023-07-28T14:58:09.625Z,99438.56
2023-07-28T15:01:12.389Z,99444.72
2023-07-28T15:04:16.709Z,99436.78
2023-07-28T15:07:20.255Z,99430.75
2023-07-28T15:10:23.072Z,99440.88
2023-07-28T15:13:25.772Z,99436.41
2023-07-28T15:16:28.654Z,99447.66
2023-07-28T15:19:31.084Z,99449.31
2023-07-28T15:22:34.003Z,99445.81
2023-07-28T15:25:36.522Z,99449.16
2023-07-28T15:28:39.217Z,99443.91
2023-07-28T15:31:41.700Z,99442.25
2023-07-28T15:34:44.307Z,99442.50
2023-07-28T15:37:46.763Z,99449.88
2023-07-28T15:40:49.550Z,99451.03
2023-07-28T15:43:51.921Z,99453.66
2023-07-28T15:46:54.504Z,99462.66
2023-07-28T15:49:56.899Z,99460.75
2023-07-28T15:52:59.650Z,99466.84
2023-07-28T15:56:02.151Z,99477.44
2023-07-28T15:59:04.755Z,99474.34
2023-07-28T16:02:07.648Z,99477.72
2023-07-28T16:05:11.105Z,99483.03
2023-07-28T16:08:13.578Z,99476.78
2023-07-28T16:11:17.176Z,99486.44
2023-07-28T16:14:19.697Z,99486.03
2023-07-28T16:17:22.729Z,99486.81
2023-07-28T16:20:25.299Z,99488.72
2023-07-28T16:23:28.029Z,99484.94
2023-07-28T16:26:30.542Z,99493.44
2023-07-28T16:29:33.238Z,99486.88
2023-07-28T16:32:36.873Z,99501.47
2023-07-28T16:35:39.637Z,99502.22
2023-07-28T16:38:42.084Z,99509.34
2023-07-28T16:41:45.479Z,99510.94
2023-07-28T16:44:48.027Z,99510.34
2023-07-28T16:47:50.824Z,99512.97
2023-07-28T16:50:53.256Z,99519.06
2023-07-28T16:53:56.016Z,99517.59
2023-07-28T16:56:59.205Z,99519.63
2023-07-28T17:00:01.877Z,99512.50
2023-07-28T17:03:07.113Z,99517.44
2023-07-28T17:06:10.026Z,99519.56
2023-07-28T17:09:18.016Z,99532.75
2023-07-28T17:12:20.677Z,99528.37
2023-07-28T17:15:34.249Z,99537.69
2023-07-28T17:18:41.495Z,99535.47
2023-07-28T17:21:44.828Z,99534.88
2023-07-28T17:24:51.382Z,99536.72
2023-07-28T17:27:53.963Z,99537.22
2023-07-28T17:30:56.724Z,99547.03
2023-07-28T17:33:59.917Z,99549.09
2023-07-28T17:37:02.717Z,99544.53
2023-07-28T17:40:05.747Z,99545.09
2023-07-28T17:43:08.609Z,99550.19
2023-07-28T17:46:15.062Z,99551.78
2023-07-28T17:49:17.733Z,99555.81
2023-07-28T17:52:20.531Z,99549.00
2023-07-28T17:55:23.421Z,99555.53
2023-07-28T17:58:25.998Z,99551.53
2023-07-28T18:01:28.784Z,99557.34
2023-07-28T18:04:31.684Z,99548.44
2023-07-28T18:07:34.076Z,99543.63
2023-07-28T18:10:37.173Z,99540.47
2023-07-28T18:13:39.534Z,99550.63
2023-07-28T18:16:42.270Z,99547.47
2023-07-28T18:19:44.801Z,99554.03
2023-07-28T18:22:47.644Z,99547.91
2023-07-28T18:25:50.032Z,99542.78
2023-07-28T18:28:52.673Z,99546.13
2023-07-28T18:31:55.005Z,99541.63
2023-07-28T18:34:57.719Z,99542.84
2023-07-28T18:38:00.116Z,99543.50
2023-07-28T18:41:02.753Z,99544.97
2023-07-28T18:44:05.453Z,99553.78
2023-07-28T18:47:08.269Z,99538.78
2023-07-28T18:50:10.959Z,99551.56
2023-07-28T18:53:14.043Z,99549.69
2023-07-28T18:56:16.414Z,99519.53
2023-07-28T18:59:19.101Z,99554.78
2023-07-28T19:02:21.598Z,99558.87
2023-07-28T19:05:24.703Z,99557.72
2023-07-28T19:08:27.048Z,99560.25
2023-07-28T19:11:29.838Z,99561.88
2023-07-28T19:14:32.231Z,99563.09
2023-07-28T19:17:34.948Z,99564.22
2023-07-28T19:20:37.291Z,99565.34
2023-07-28T19:23:40.954Z,99570.62
2023-07-28T19:26:43.341Z,99577.78
2023-07-28T19:29:46.057Z,99575.47
2023-07-28T19:32:48.446Z,99569.56
2023-07-28T19:35:51.550Z,99578.38
2023-07-28T19:38:53.895Z,99572.59
2023-07-28T19:41:56.556Z,99580.53
2023-07-28T19:44:59.063Z,99576.97
2023-07-28T19:48:01.797Z,99584.88
2023-07-28T19:51:05.148Z,99577.31
2023-07-28T19:54:08.764Z,99578.53
2023-07-28T19:57:11.164Z,99583.56
2023-07-28T20:00:13.968Z,99585.00
2023-07-28T20:03:16.695Z,99591.38
2023-07-28T20:06:19.505Z,99588.09
2023-07-28T20:09:28.023Z,99593.03
2023-07-28T20:12:31.208Z,99590.28
2023-07-28T20:15:34.204Z,99594.00
2023-07-28T20:18:37.275Z,99590.16
2023-07-28T20:21:39.968Z,99602.00
2023-07-28T20:24:42.453Z,99598.91
2023-07-28T20:27:46.052Z,99600.66
2023-07-28T20:30:48.673Z,99610.41
2023-07-28T20:33:52.241Z,99601.56
2023-07-28T20:36:54.904Z,99609.00
2023-07-28T20:39:57.677Z,99620.94
2023-07-28T20:43:00.253Z,99611.19
2023-07-28T20:46:03.185Z,99609.22
2023-07-28T20:49:05.996Z,99604.00
2023-07-28T20:52:09.924Z,99615.56
2023-07-28T20:55:12.428Z,99616.91
2023-07-28T20:58:15.156Z,99626.97
2023-07-28T21:01:17.682Z,99627.28
2023-07-28T21:04:20.447Z,99626.59
2023-07-28T21:07:22.800Z,99628.97
2023-07-28T21:10:26.141Z,99631.25
2023-07-28T21:13:28.725Z,99636.91
2023-07-28T21:16:31.610Z,99630.13
2023-07-28T21:19:34.413Z,99632.78
2023-07-28T21:22:37.294Z,99642.06
2023-07-28T21:25:41.399Z,99642.50
2023-07-28T21:28:44.326Z,99647.97
2023-07-28T21:31:46.836Z,99637.44
2023-07-28T21:34:49.535Z,99650.44
2023-07-28T21:37:52.126Z,99653.72
2023-07-28T21:40:54.852Z,99650.78
2023-07-28T21:43:59.249Z,99656.78
2023-07-28T21:47:02.046Z,99652.69
2023-07-28T21:50:06.697Z,99660.41
2023-07-28T21:53:09.526Z,99665.19
2023-07-28T21:56:12.041Z,99665.19
2023-07-28T21:59:15.191Z,99664.78
2023-07-28T22:02:17.869Z,99662.94
2023-07-28T22:05:20.714Z,99666.63
2023-07-28T22:08:23.146Z,99667.03
2023-07-28T22:11:25.952Z,99663.13
2023-07-28T22:14:28.591Z,99662.16
2023-07-28T22:17:32.306Z,99665.56
2023-07-28T22:20:42.752Z,99670.47
2023-07-28T22:23:45.549Z,99674.66
2023-07-28T22:26:48.091Z,99682.25
2023-07-28T22:29:53.155Z,99681.00
2023-07-28T22:32:55.717Z,99679.03
2023-07-28T22:35:58.639Z,99672.00
2023-07-28T22:39:02.749Z,99678.94
2023-07-28T22:42:06.000Z,99687.59
2023-07-28T22:45:08.823Z,99690.53
2023-07-28T22:48:11.694Z,99688.78
2023-07-28T22:51:15.396Z,99699.91
2023-07-28T22:54:18.185Z,99699.69
2023-07-28T22:57:20.819Z,99694.59
2023-07-28T23:00:28.327Z,99694.50
2023-07-28T23:03:30.832Z,99689.69
2023-07-28T23:06:34.153Z,99692.34
2023-07-28T23:09:38.522Z,99700.34
2023-07-28T23:12:41.243Z,99699.41
2023-07-28T23:15:43.903Z,99701.56
2023-07-28T23:18:46.760Z,99703.03
2023-07-28T23:21:49.209Z,99692.41
2023-07-28T23:24:51.944Z,99685.00
2023-07-28T23:27:54.500Z,99693.59
2023-07-28T23:31:19.074Z,99691.94
2023-07-28T23:34:21.624Z,99662.22
2023-07-28T23:37:24.293Z,99678.84
2023-07-28T23:40:26.836Z,99688.87
2023-07-28T23:43:29.583Z,99677.06
2023-07-28T23:46:32.856Z,99679.22
2023-07-28T23:49:35.941Z,99682.53
2023-07-28T23:52:38.946Z,99685.75
2023-07-28T23:55:41.586Z,99681.72
2023-07-28T23:58:44.001Z,99685.28
